createdAt,value
2019-04-20T00:02:12.504Z,13.55
2019-04-20T00:04:39.009Z,13.48
2019-04-20T00:07:10.085Z,13.47
2019-04-20T00:09:45.427Z,13.44
2019-04-20T00:12:19.083Z,13.34
2019-04-20T00:14:44.070Z,13.32
2019-04-20T00:17:13.934Z,13.22
2019-04-20T00:19:47.552Z,12.96
2019-04-20T00:22:23.389Z,12.98
2019-04-20T00:25:12.638Z,13.01
2019-04-20T00:27:59.695Z,12.83
2019-04-20T00:30:31.560Z,12.86
2019-04-20T00:32:55.891Z,12.87
2019-04-20T00:35:16.879Z,12.69
2019-04-20T00:37:46.751Z,12.60
2019-04-20T00:40:17.122Z,12.55
2019-04-20T00:42:51.794Z,12.74
2019-04-20T00:45:25.208Z,12.65
2019-04-20T00:47:57.359Z,12.61
2019-04-20T00:50:36.739Z,12.57
2019-04-20T00:53:03.150Z,12.54
2019-04-20T00:55:25.192Z,12.47
2019-04-20T00:58:03.728Z,12.58
2019-04-20T01:00:40.542Z,12.47
2019-04-20T01:03:14.271Z,12.39
2019-04-20T01:06:06.271Z,12.26
2019-04-20T01:08:23.389Z,12.30
2019-04-20T01:10:56.562Z,12.36
2019-04-20T01:13:26.700Z,12.37
2019-04-20T01:16:04.731Z,12.24
2019-04-20T01:18:27.597Z,12.14
2019-04-20T01:21:04.977Z,12.19
2019-04-20T01:23:35.585Z,12.09
2019-04-20T01:26:05.548Z,12.19
2019-04-20T01:28:46.388Z,12.27
2019-04-20T01:31:17.746Z,12.15
2019-04-20T01:33:46.093Z,12.02
2019-04-20T01:36:26.248Z,12.00
2019-04-20T01:38:52.238Z,12.10
2019-04-20T01:41:09.612Z,12.15
2019-04-20T01:43:39.568Z,11.94
2019-04-20T01:46:15.528Z,11.69
2019-04-20T01:48:42.888Z,11.79
2019-04-20T01:51:19.715Z,11.68
2019-04-20T01:54:02.060Z,11.54
2019-04-20T01:56:31.655Z,11.52
2019-04-20T01:59:04.697Z,11.56
2019-04-20T02:01:39.690Z,11.48
2019-04-20T02:04:15.743Z,11.40
2019-04-20T02:06:48.586Z,11.55
2019-04-20T02:09:19.090Z,11.51
2019-04-20T02:11:48.777Z,11.46
2019-04-20T02:14:25.674Z,11.41
2019-04-20T02:16:57.774Z,11.38
2019-04-20T02:19:34.774Z,11.20
2019-04-20T02:22:03.823Z,11.19
2019-04-20T02:24:23.718Z,11.18
2019-04-20T02:26:53.655Z,11.26
2019-04-20T02:29:44.612Z,11.19
2019-04-20T02:32:22.447Z,11.13
2019-04-20T02:40:13.085Z,11.00
2019-04-20T02:42:46.703Z,10.84
2019-04-20T02:45:17.386Z,10.80
2019-04-20T02:50:15.547Z,10.88
2019-04-20T02:52:50.618Z,10.92
2019-04-20T02:55:15.219Z,10.87
2019-04-20T02:57:55.163Z,10.70
2019-04-20T03:00:12.647Z,10.65
2019-04-20T03:02:34.549Z,10.60
2019-04-20T03:05:05.664Z,10.43
2019-04-20T03:07:36.206Z,10.37
2019-04-20T03:10:14.073Z,10.33
2019-04-20T03:12:44.861Z,10.34
2019-04-20T03:15:20.884Z,10.21
2019-04-20T03:17:50.776Z,10.18
2019-04-20T03:20:23.092Z,10.28
2019-04-20T03:23:11.717Z,9.89
2019-04-20T03:25:45.064Z,9.79
2019-04-20T03:28:14.063Z,10.01
2019-04-20T03:33:31.008Z,10.17
2019-04-20T03:35:58.019Z,10.27
2019-04-20T03:38:24.587Z,10.22
2019-04-20T03:40:45.299Z,10.11
2019-04-20T03:43:02.674Z,10.18
2019-04-20T03:45:41.614Z,10.38
2019-04-20T03:48:17.165Z,10.24
2019-04-20T03:51:00.509Z,10.01
2019-04-20T03:53:29.939Z,9.99
2019-04-20T03:56:01.984Z,10.05
2019-04-20T03:58:47.210Z,10.08
2019-04-20T04:01:43.332Z,10.03
2019-04-20T04:04:05.353Z,10.02
2019-04-20T04:06:24.372Z,10.07
2019-04-20T04:08:58.920Z,10.11
2019-04-20T04:11:31.447Z,10.11
2019-04-20T04:13:48.131Z,10.10
2019-04-20T04:16:21.582Z,9.97
2019-04-20T04:19:02.838Z,10.14
2019-04-20T04:21:38.307Z,10.09
2019-04-20T04:24:05.601Z,9.94
2019-04-20T04:26:38.914Z,9.65
2019-04-20T04:29:19.154Z,9.70
2019-04-20T04:31:57.731Z,9.70
2019-04-20T04:34:20.631Z,9.46
2019-04-20T04:36:53.726Z,9.44
2019-04-20T04:39:29.384Z,9.47
2019-04-20T04:42:01.872Z,9.29
2019-04-20T04:44:19.281Z,9.40
2019-04-20T04:46:44.624Z,9.19
2019-04-20T04:49:18.033Z,9.30
2019-04-20T04:51:49.177Z,9.18
2019-04-20T04:54:22.007Z,9.23
2019-04-20T04:56:41.948Z,9.38
2019-04-20T04:59:12.766Z,9.43
2019-04-20T05:01:48.867Z,9.42
2019-04-20T05:04:33.914Z,9.34
2019-04-20T05:06:59.491Z,9.35
2019-04-20T05:09:19.363Z,9.46
2019-04-20T05:11:49.692Z,9.63
2019-04-20T05:14:26.187Z,9.63
2019-04-20T05:17:09.934Z,9.59
2019-04-20T05:19:50.772Z,9.41
2019-04-20T05:22:22.944Z,9.36
2019-04-20T05:24:56.715Z,9.52
2019-04-20T05:27:36.105Z,9.61
2019-04-20T05:29:44.731Z,9.45
2019-04-20T05:32:18.788Z,9.53
2019-04-20T05:35:10.883Z,9.52
2019-04-20T05:37:45.176Z,9.35
2019-04-20T05:40:12.854Z,9.45
2019-04-20T05:42:43.957Z,9.58
2019-04-20T05:45:11.808Z,9.67
2019-04-20T05:47:44.115Z,9.65
2019-04-20T05:50:08.243Z,9.74
2019-04-20T05:52:56.322Z,9.65
2019-04-20T05:55:20.911Z,9.82
2019-04-20T05:57:56.980Z,9.81
2019-04-20T06:00:27.805Z,9.96
2019-04-20T06:02:54.901Z,9.97
2019-04-20T06:05:27.508Z,10.01
2019-04-20T06:07:59.299Z,9.90
2019-04-20T06:10:38.457Z,9.89
2019-04-20T06:13:00.241Z,9.89
2019-04-20T06:15:39.271Z,9.93
2019-04-20T06:18:12.345Z,10.04
2019-04-20T06:20:48.432Z,10.17
2019-04-20T06:23:47.129Z,10.29
2019-04-20T06:26:26.783Z,10.34
2019-04-20T06:28:40.602Z,10.20
2019-04-20T06:31:19.039Z,10.29
2019-04-20T06:36:53.533Z,10.43
2019-04-20T06:39:30.924Z,10.47
2019-04-20T06:42:15.187Z,10.52
2019-04-20T06:49:36.804Z,10.77
2019-04-20T06:52:23.098Z,10.87
2019-04-20T06:54:55.132Z,10.96
2019-04-20T06:57:30.977Z,10.98
2019-04-20T06:59:59.792Z,11.04
2019-04-20T07:02:36.044Z,11.17
2019-04-20T07:05:05.345Z,11.16
2019-04-20T07:07:41.884Z,11.24
2019-04-20T07:10:14.761Z,11.30
2019-04-20T07:12:37.914Z,11.33
2019-04-20T07:14:58.647Z,11.29
2019-04-20T07:18:02.996Z,11.36
2019-04-20T07:20:19.332Z,11.49
2019-04-20T07:23:03.064Z,11.58
2019-04-20T07:25:34.138Z,11.72
2019-04-20T07:28:02.960Z,11.66
2019-04-20T07:30:35.325Z,11.67
2019-04-20T07:33:04.308Z,11.70
2019-04-20T07:35:36.008Z,11.76
2019-04-20T07:40:38.359Z,11.91
2019-04-20T07:43:13.350Z,12.04
2019-04-20T07:45:36.439Z,12.06
2019-04-20T07:48:14.983Z,12.22
2019-04-20T07:50:37.325Z,12.28
2019-04-20T07:53:13.555Z,12.40
2019-04-20T07:55:50.765Z,12.50
2019-04-20T07:58:10.959Z,12.56
2019-04-20T08:03:39.458Z,12.76
2019-04-20T08:06:11.527Z,12.87
2019-04-20T08:08:54.087Z,12.91
2019-04-20T08:11:21.609Z,13.11
2019-04-20T08:14:01.976Z,13.10
2019-04-20T08:16:43.919Z,13.18
2019-04-20T08:19:00.580Z,13.25
2019-04-20T08:21:37.356Z,13.33
2019-04-20T08:24:02.015Z,13.46
2019-04-20T08:26:23.086Z,13.50
2019-04-20T08:29:20.577Z,13.53
2019-04-20T08:32:17.873Z,13.61
2019-04-20T08:34:52.210Z,13.79
2019-04-20T08:37:17.212Z,13.89
2019-04-20T08:39:58.408Z,13.96
2019-04-20T08:42:21.699Z,14.05
2019-04-20T08:45:04.162Z,14.18
2019-04-20T08:50:20.982Z,14.34
2019-04-20T08:55:19.763Z,14.65
2019-04-20T08:57:33.609Z,14.63
2019-04-20T09:00:07.090Z,14.70
2019-04-20T09:02:41.220Z,14.74
2019-04-20T09:05:24.890Z,14.74
2019-04-20T09:07:53.179Z,14.79
2019-04-20T09:10:39.521Z,14.89
2019-04-20T09:13:02.557Z,15.03
2019-04-20T09:15:21.134Z,15.23
2019-04-20T09:17:58.223Z,15.27
2019-04-20T09:20:36.511Z,15.35
2019-04-20T09:23:18.166Z,15.55
2019-04-20T09:28:29.276Z,15.49
2019-04-20T09:31:21.158Z,15.66
2019-04-20T09:34:01.610Z,15.79
2019-04-20T09:36:27.606Z,15.78
2019-04-20T09:39:15.303Z,15.78
2019-04-20T09:41:59.100Z,15.87
2019-04-20T09:44:13.389Z,16.08
2019-04-20T09:46:50.926Z,16.15
2019-04-20T09:49:24.483Z,16.32
2019-04-20T09:52:03.982Z,16.19
2019-04-20T09:54:40.468Z,16.19
2019-04-20T09:57:10.459Z,16.31
2019-04-20T09:59:37.286Z,16.26
2019-04-20T10:02:02.176Z,16.35
2019-04-20T10:04:24.058Z,16.60
2019-04-20T10:06:55.124Z,16.61
2019-04-20T10:09:30.584Z,16.90
2019-04-20T10:11:57.561Z,17.20
2019-04-20T10:14:27.278Z,17.10
2019-04-20T10:16:57.980Z,17.18
2019-04-20T10:19:32.515Z,17.03
2019-04-20T10:22:00.389Z,17.31
2019-04-20T10:24:30.632Z,17.22
2019-04-20T10:27:00.819Z,17.32
2019-04-20T10:29:31.296Z,17.54
2019-04-20T10:32:05.544Z,17.87
2019-04-20T10:34:32.830Z,17.98
2019-04-20T10:37:03.745Z,18.03
2019-04-20T10:39:36.289Z,17.98
2019-04-20T10:42:06.218Z,17.95
2019-04-20T10:44:36.955Z,17.87
2019-04-20T10:47:07.286Z,18.09
2019-04-20T10:49:38.424Z,18.06
2019-04-20T10:52:09.486Z,18.04
2019-04-20T10:54:40.618Z,18.16
2019-04-20T10:57:10.431Z,18.26
2019-04-20T10:59:41.456Z,18.35
2019-04-20T11:02:12.119Z,18.52
2019-04-20T11:04:41.993Z,18.69
2019-04-20T11:07:12.499Z,18.84
2019-04-20T11:09:42.828Z,18.93
2019-04-20T11:12:12.661Z,19.10
2019-04-20T11:14:45.219Z,19.18
2019-04-20T11:17:14.138Z,18.96
2019-04-20T11:19:45.258Z,19.18
2019-04-20T11:22:16.608Z,19.26
2019-04-20T11:24:46.491Z,19.36
2019-04-20T11:27:16.328Z,19.56
2019-04-20T11:29:46.384Z,19.81
2019-04-20T11:32:16.310Z,19.91
2019-04-20T11:34:47.090Z,19.99
2019-04-20T11:37:17.230Z,20.26
2019-04-20T11:39:47.485Z,20.66
2019-04-20T11:42:17.448Z,20.90
2019-04-20T11:44:48.705Z,21.16
2019-04-20T11:47:18.907Z,21.17
2019-04-20T11:49:49.382Z,21.37
2019-04-20T11:52:21.185Z,21.60
2019-04-20T11:54:50.770Z,21.74
2019-04-20T11:57:21.569Z,21.85
2019-04-20T11:59:52.904Z,22.08
2019-04-20T12:02:44.732Z,22.17
2019-04-20T12:05:24.960Z,22.44
2019-04-20T12:08:04.955Z,22.68
2019-04-20T12:10:35.262Z,22.41
2019-04-20T12:13:05.867Z,22.35
2019-04-20T12:15:38.607Z,22.44
2019-04-20T12:18:09.524Z,22.89
2019-04-20T12:20:40.876Z,22.89
2019-04-20T12:23:10.778Z,23.09
2019-04-20T12:25:42.456Z,23.43
2019-04-20T12:28:13.562Z,23.55
2019-04-20T12:30:43.901Z,23.63
2019-04-20T12:33:13.743Z,23.70
2019-04-20T12:35:44.500Z,23.59
2019-04-20T12:38:14.927Z,23.48
2019-04-20T12:40:46.110Z,23.71
2019-04-20T12:43:17.216Z,24.05
2019-04-20T12:45:47.714Z,24.42
2019-04-20T12:48:17.700Z,24.14
2019-04-20T12:50:47.926Z,24.04
2019-04-20T12:53:17.691Z,24.15
2019-04-20T12:55:48.448Z,24.34
2019-04-20T12:58:18.669Z,24.46
2019-04-20T13:00:52.235Z,24.83
2019-04-20T13:03:23.578Z,25.08
2019-04-20T13:05:54.232Z,24.99
2019-04-20T13:08:31.804Z,25.14
2019-04-20T13:11:00.307Z,25.21
2019-04-20T13:13:48.271Z,25.41
2019-04-20T13:16:20.593Z,25.62
2019-04-20T13:18:53.052Z,25.62
2019-04-20T13:21:23.072Z,25.86
2019-04-20T13:23:53.198Z,25.71
2019-04-20T13:26:23.255Z,25.52
2019-04-20T13:28:55.138Z,25.73
2019-04-20T13:31:26.124Z,25.77
2019-04-20T13:33:57.178Z,26.07
2019-04-20T13:36:28.517Z,26.09
2019-04-20T13:38:59.579Z,25.90
2019-04-20T13:41:29.927Z,25.59
2019-04-20T13:44:01.446Z,25.84
2019-04-20T13:46:31.649Z,26.17
2019-04-20T13:49:01.283Z,26.33
2019-04-20T13:51:31.110Z,26.60
2019-04-20T13:54:01.755Z,26.84
2019-04-20T13:56:32.329Z,26.98
2019-04-20T13:59:07.558Z,27.26
2019-04-20T14:01:41.186Z,27.54
2019-04-20T14:04:11.097Z,27.76
2019-04-20T14:06:41.980Z,27.86
2019-04-20T14:09:12.461Z,27.74
2019-04-20T14:11:43.449Z,27.72
2019-04-20T14:14:13.438Z,27.57
2019-04-20T14:16:43.405Z,27.80
2019-04-20T14:19:14.372Z,27.95
2019-04-20T14:21:44.388Z,28.24
2019-04-20T14:24:15.049Z,28.17
2019-04-20T14:26:45.800Z,27.95
2019-04-20T14:29:16.873Z,27.75
2019-04-20T14:31:47.998Z,27.85
2019-04-20T14:34:17.753Z,27.75
2019-04-20T14:36:48.724Z,27.92
2019-04-20T14:39:18.615Z,28.26
2019-04-20T14:41:48.677Z,28.65
2019-04-20T14:44:19.612Z,28.61
2019-04-20T14:46:49.752Z,28.94
2019-04-20T14:49:20.838Z,29.48
2019-04-20T14:51:50.791Z,29.62
2019-04-20T14:54:21.340Z,29.29
2019-04-20T14:56:51.699Z,29.90
2019-04-20T14:59:29.583Z,30.72
2019-04-20T15:02:01.124Z,31.22
2019-04-20T15:04:32.226Z,31.14
2019-04-20T15:07:02.486Z,31.91
2019-04-20T15:09:36.881Z,32.50
2019-04-20T15:12:06.727Z,33.25
2019-04-20T15:14:36.848Z,33.78
2019-04-20T15:17:08.902Z,33.82
2019-04-20T15:19:41.356Z,34.04
2019-04-20T15:22:31.660Z,33.63
2019-04-20T15:25:01.596Z,33.35
2019-04-20T15:27:31.370Z,32.61
2019-04-20T15:30:02.555Z,32.38
2019-04-20T15:32:33.198Z,32.33
2019-04-20T15:35:03.202Z,31.96
2019-04-20T15:37:33.125Z,32.14
2019-04-20T15:40:03.427Z,32.24
2019-04-20T15:42:33.526Z,32.57
2019-04-20T15:45:05.270Z,32.25
2019-04-20T15:47:36.120Z,32.02
2019-04-20T15:50:07.921Z,31.80
2019-04-20T15:52:43.216Z,31.56
2019-04-20T15:55:18.140Z,31.50
2019-04-20T15:57:40.706Z,30.78
2019-04-20T16:00:11.031Z,30.42
2019-04-20T16:02:41.216Z,30.03
2019-04-20T16:05:16.565Z,29.63
2019-04-20T16:07:52.461Z,29.93
2019-04-20T16:10:19.266Z,29.91
2019-04-20T16:13:02.980Z,29.50
2019-04-20T16:15:21.999Z,29.35
2019-04-20T16:17:53.238Z,29.61
2019-04-20T16:20:25.038Z,29.80
2019-04-20T16:22:54.839Z,29.98
2019-04-20T16:25:35.511Z,30.27
2019-04-20T16:28:05.762Z,30.64
2019-04-20T16:30:35.940Z,30.91
2019-04-20T16:33:06.266Z,31.24
2019-04-20T16:35:36.406Z,31.51
2019-04-20T16:38:06.731Z,31.61
2019-04-20T16:40:37.721Z,31.63
2019-04-20T16:43:17.976Z,31.76
2019-04-20T16:45:39.241Z,31.67
2019-04-20T16:48:10.396Z,31.37
2019-04-20T16:50:40.762Z,30.69
2019-04-20T16:53:10.773Z,30.41
2019-04-20T16:55:40.955Z,29.79
2019-04-20T16:58:10.854Z,28.93
2019-04-20T17:00:41.281Z,28.31
2019-04-20T17:03:11.224Z,27.58
2019-04-20T17:05:41.277Z,27.24
2019-04-20T17:08:11.277Z,26.86
2019-04-20T17:10:41.406Z,26.34
2019-04-20T17:13:11.611Z,25.73
2019-04-20T17:15:41.494Z,25.38
2019-04-20T17:18:11.755Z,24.93
2019-04-20T17:20:41.714Z,24.61
2019-04-20T17:23:11.384Z,24.39
2019-04-20T17:25:41.923Z,24.17
2019-04-20T17:28:25.266Z,24.02
2019-04-20T17:31:13.513Z,23.81
2019-04-20T17:33:58.168Z,23.67
2019-04-20T17:36:21.495Z,23.54
2019-04-20T17:38:54.128Z,23.44
2019-04-20T17:41:40.159Z,23.27
2019-04-20T17:44:10.015Z,23.15
2019-04-20T17:46:37.188Z,23.05
2019-04-20T17:49:09.626Z,22.91
2019-04-20T17:51:47.621Z,22.75
2019-04-20T17:54:03.097Z,22.64
2019-04-20T17:56:28.686Z,22.44
2019-04-20T17:58:58.569Z,22.30
2019-04-20T18:01:41.274Z,22.19
2019-04-20T18:04:39.800Z,22.04
2019-04-20T18:06:47.880Z,21.91
2019-04-20T18:09:34.409Z,21.80
2019-04-20T18:11:45.362Z,21.70
2019-04-20T18:14:28.637Z,21.60
2019-04-20T18:17:13.841Z,21.50
2019-04-20T18:19:34.211Z,21.35
2019-04-20T18:22:03.830Z,21.25
2019-04-20T18:24:59.917Z,21.03
2019-04-20T18:27:27.856Z,20.75
2019-04-20T18:29:53.368Z,20.59
2019-04-20T18:32:09.812Z,20.37
2019-04-20T18:34:45.827Z,20.15
2019-04-20T18:37:16.883Z,20.05
2019-04-20T18:39:53.431Z,19.92
2019-04-20T18:42:23.404Z,19.77
2019-04-20T18:45:09.283Z,19.60
2019-04-20T18:47:39.422Z,19.34
2019-04-20T18:50:01.119Z,19.40
2019-04-20T18:52:21.987Z,19.28
2019-04-20T18:54:55.295Z,19.23
2019-04-20T18:57:26.067Z,19.29
2019-04-20T18:59:56.682Z,19.23
2019-04-20T19:02:30.880Z,19.13
2019-04-20T19:04:59.923Z,19.02
2019-04-20T19:07:34.849Z,18.96
2019-04-20T19:10:13.870Z,18.97
2019-04-20T19:12:42.448Z,18.87
2019-04-20T19:15:37.995Z,18.81
2019-04-20T19:18:07.794Z,18.78
2019-04-20T19:20:30.650Z,18.64
2019-04-20T19:23:02.022Z,18.58
2019-04-20T19:25:36.971Z,18.56
2019-04-20T19:28:05.083Z,18.61
2019-04-20T19:30:44.268Z,18.60
2019-04-20T19:33:23.010Z,18.46
2019-04-20T19:35:46.843Z,18.49
2019-04-20T19:38:17.393Z,18.33
2019-04-20T19:40:51.254Z,18.32
2019-04-20T19:43:22.590Z,18.18
2019-04-20T19:46:24.116Z,17.98
2019-04-20T19:48:28.269Z,17.89
2019-04-20T19:51:10.184Z,17.79
2019-04-20T19:53:37.898Z,17.75
2019-04-20T19:56:01.220Z,17.56
2019-04-20T19:58:32.794Z,17.50
2019-04-20T20:00:57.711Z,17.58
2019-04-20T20:03:26.118Z,17.47
2019-04-20T20:05:57.807Z,17.54
2019-04-20T20:08:31.048Z,17.33
2019-04-20T20:11:01.345Z,17.12
2019-04-20T20:13:36.174Z,17.04
2019-04-20T20:16:09.684Z,17.02
2019-04-20T20:18:49.130Z,17.08
2019-04-20T20:21:21.903Z,17.03
2019-04-20T20:23:36.707Z,16.95
2019-04-20T20:26:09.067Z,16.93
2019-04-20T20:28:47.070Z,16.98
2019-04-20T20:31:22.348Z,16.65
2019-04-20T20:33:54.582Z,16.60
2019-04-20T20:36:19.736Z,16.48
2019-04-20T20:38:49.291Z,16.54
2019-04-20T20:41:25.404Z,16.54
2019-04-20T20:43:56.558Z,16.54
2019-04-20T20:46:27.536Z,16.49
2019-04-20T20:49:21.183Z,16.43
2019-04-20T20:51:43.763Z,16.33
2019-04-20T20:54:03.728Z,16.16
2019-04-20T20:56:29.129Z,16.10
2019-04-20T20:59:04.089Z,16.17
2019-04-20T21:01:37.819Z,16.10
2019-04-20T21:03:58.532Z,16.09
2019-04-20T21:06:28.728Z,16.07
2019-04-20T21:09:01.308Z,16.00
2019-04-20T21:11:34.018Z,16.21
2019-04-20T21:14:01.391Z,15.93
2019-04-20T21:16:33.400Z,16.16
2019-04-20T21:19:20.193Z,16.17
2019-04-20T21:21:46.350Z,16.03
2019-04-20T21:24:14.529Z,15.95
2019-04-20T21:26:44.107Z,15.91
2019-04-20T21:29:13.622Z,15.98
2019-04-20T21:31:56.782Z,16.00
2019-04-20T21:34:19.558Z,15.90
2019-04-20T21:36:47.280Z,15.88
2019-04-20T21:39:31.261Z,15.79
2019-04-20T21:41:56.045Z,15.61
2019-04-20T21:44:25.238Z,15.60
2019-04-20T21:46:54.597Z,15.54
2019-04-20T21:49:36.141Z,15.54
2019-04-20T21:52:01.134Z,15.76
2019-04-20T21:54:26.284Z,15.76
2019-04-20T21:57:01.619Z,15.58
2019-04-20T21:59:36.283Z,15.44
2019-04-20T22:02:07.773Z,15.39
2019-04-20T22:04:31.638Z,15.47
2019-04-20T22:07:02.553Z,15.49
2019-04-20T22:09:40.417Z,15.24
2019-04-20T22:12:04.036Z,15.11
2019-04-20T22:14:34.024Z,15.16
2019-04-20T22:17:05.489Z,14.91
2019-04-20T22:19:44.111Z,14.92
2019-04-20T22:22:18.659Z,14.88
2019-04-20T22:24:53.921Z,14.75
2019-04-20T22:27:19.464Z,14.77
2019-04-20T22:29:41.802Z,14.72
2019-04-20T22:32:13.789Z,14.38
2019-04-20T22:34:47.585Z,14.36
2019-04-20T22:37:21.261Z,14.27
2019-04-20T22:39:52.570Z,14.06
2019-04-20T22:42:20.444Z,14.21
2019-04-20T22:44:58.733Z,14.23
2019-04-20T22:47:27.051Z,14.20
2019-04-20T22:50:16.309Z,14.27
2019-04-20T22:52:40.857Z,14.12
2019-04-20T22:55:22.396Z,14.07
2019-04-20T22:57:44.768Z,14.07
2019-04-20T23:00:06.281Z,14.09
2019-04-20T23:02:31.529Z,13.98
2019-04-20T23:05:02.721Z,13.57
2019-04-20T23:07:32.758Z,13.68
2019-04-20T23:10:03.772Z,13.54
2019-04-20T23:12:34.050Z,13.54
2019-04-20T23:15:04.647Z,13.61
2019-04-20T23:17:39.909Z,13.59
2019-04-20T23:20:15.156Z,13.68
2019-04-20T23:22:45.248Z,13.67
2019-04-20T23:25:11.262Z,13.47
2019-04-20T23:27:42.090Z,13.40
2019-04-20T23:30:23.668Z,13.52
2019-04-20T23:32:46.069Z,13.35
2019-04-20T23:35:19.777Z,13.45
2019-04-20T23:37:48.506Z,13.17
2019-04-20T23:40:19.488Z,13.23
2019-04-20T23:42:57.881Z,13.20
2019-04-20T23:45:38.813Z,13.08
2019-04-20T23:48:08.483Z,13.09
2019-04-20T23:50:54.405Z,13.14
2019-04-20T23:53:28.417Z,13.21
2019-04-20T23:55:43.632Z,12.94
2019-04-20T23:58:14.685Z,12.90
